createdAt,value
2023-04-27T00:00:11.296Z,3.20
2023-04-27T00:02:14.245Z,3.55
2023-04-27T00:04:17.382Z,3.47
2023-04-27T00:06:20.306Z,3.13
2023-04-27T00:08:23.203Z,3.90
2023-04-27T00:10:26.078Z,2.83
2023-04-27T00:12:28.890Z,4.38
2023-04-27T00:14:31.585Z,3.40
2023-04-27T00:16:34.482Z,3.22
2023-04-27T00:18:37.272Z,3.75
2023-04-27T00:20:40.437Z,4.00
2023-04-27T00:22:43.257Z,3.90
2023-04-27T00:24:46.224Z,3.90
2023-04-27T00:26:49.039Z,3.05
2023-04-27T00:28:51.912Z,3.33
2023-04-27T00:30:55.060Z,3.33
2023-04-27T00:32:57.856Z,3.13
2023-04-27T00:35:00.634Z,3.30
2023-04-27T00:37:05.665Z,3.13
2023-04-27T00:39:09.185Z,3.30
2023-04-27T00:41:11.829Z,3.33
2023-04-27T00:43:15.147Z,3.60
2023-04-27T00:45:17.827Z,3.53
2023-04-27T00:47:20.729Z,3.33
2023-04-27T00:49:24.411Z,3.50
2023-04-27T00:51:30.324Z,3.75
2023-04-27T00:53:33.608Z,3.80
2023-04-27T00:55:36.351Z,3.92
2023-04-27T00:57:39.157Z,3.60
2023-04-27T00:59:41.983Z,4.00
2023-04-27T01:01:46.376Z,3.42
2023-04-27T01:03:49.543Z,4.18
2023-04-27T01:05:52.411Z,3.65
2023-04-27T01:07:55.858Z,4.35
2023-04-27T01:09:58.664Z,4.65
2023-04-27T01:12:01.581Z,3.70
2023-04-27T01:14:06.284Z,3.63
2023-04-27T01:16:09.716Z,3.67
2023-04-27T01:18:12.917Z,3.22
2023-04-27T01:20:15.859Z,4.20
2023-04-27T01:22:18.657Z,3.75
2023-04-27T01:24:21.940Z,3.40
2023-04-27T01:26:24.822Z,3.53
2023-04-27T01:28:27.526Z,3.78
2023-04-27T01:30:30.429Z,3.47
2023-04-27T01:32:33.196Z,3.35
2023-04-27T01:34:36.169Z,3.45
2023-04-27T01:36:39.446Z,3.83
2023-04-27T01:38:42.552Z,3.45
2023-04-27T01:40:45.307Z,2.92
2023-04-27T01:42:48.255Z,3.83
2023-04-27T01:44:51.018Z,3.80
2023-04-27T01:46:53.854Z,3.53
2023-04-27T01:48:56.559Z,4.10
2023-04-27T01:50:59.433Z,4.68
2023-04-27T01:53:02.283Z,3.67
2023-04-27T01:55:05.722Z,4.22
2023-04-27T01:57:08.479Z,3.42
2023-04-27T01:59:11.480Z,3.17
2023-04-27T02:01:14.452Z,3.70
2023-04-27T02:03:17.552Z,3.42
2023-04-27T02:05:20.791Z,3.65
2023-04-27T02:07:23.631Z,3.95
2023-04-27T02:09:26.394Z,3.05
2023-04-27T02:11:29.151Z,3.42
2023-04-27T02:13:33.072Z,3.63
2023-04-27T02:15:36.233Z,3.47
2023-04-27T02:17:39.698Z,3.97
2023-04-27T02:19:42.700Z,3.55
2023-04-27T02:21:45.685Z,4.10
2023-04-27T02:23:48.405Z,4.35
2023-04-27T02:25:51.567Z,3.30
2023-04-27T02:27:54.325Z,3.53
2023-04-27T02:29:57.576Z,4.07
2023-04-27T02:32:00.837Z,4.35
2023-04-27T02:34:03.572Z,3.33
2023-04-27T02:36:06.738Z,4.28
2023-04-27T02:38:10.527Z,3.63
2023-04-27T02:40:13.300Z,3.08
2023-04-27T02:42:16.779Z,3.33
2023-04-27T02:44:19.537Z,4.13
2023-04-27T02:46:22.308Z,3.60
2023-04-27T02:48:25.086Z,3.50
2023-04-27T02:50:27.823Z,3.58
2023-04-27T02:52:30.539Z,3.20
2023-04-27T02:54:33.427Z,4.20
2023-04-27T02:56:36.194Z,4.22
2023-04-27T02:58:39.022Z,4.05
2023-04-27T03:00:42.121Z,3.38
2023-04-27T03:02:45.054Z,3.60
2023-04-27T03:04:48.005Z,3.75
2023-04-27T03:06:51.178Z,3.50
2023-04-27T03:08:53.796Z,4.07
2023-04-27T03:10:56.474Z,3.80
2023-04-27T03:12:59.188Z,4.15
2023-04-27T03:15:02.039Z,3.83
2023-04-27T03:17:07.878Z,3.83
2023-04-27T03:19:10.896Z,3.72
2023-04-27T03:21:14.037Z,3.67
2023-04-27T03:23:16.703Z,4.05
2023-04-27T03:25:19.598Z,2.80
2023-04-27T03:27:23.405Z,4.07
2023-04-27T03:29:26.396Z,3.53
2023-04-27T03:31:29.113Z,3.85
2023-04-27T03:33:32.113Z,3.70
2023-04-27T03:35:34.994Z,3.90
2023-04-27T03:37:37.799Z,3.80
2023-04-27T03:39:40.656Z,3.75
2023-04-27T03:41:43.293Z,3.65
2023-04-27T03:43:46.172Z,2.83
2023-04-27T03:45:49.140Z,2.80
2023-04-27T03:47:51.880Z,3.15
2023-04-27T03:49:54.762Z,3.55
2023-04-27T03:51:57.418Z,2.60
2023-04-27T03:54:00.483Z,2.75
2023-04-27T03:56:03.832Z,2.78
2023-04-27T03:58:07.012Z,2.25
2023-04-27T04:00:13.158Z,2.10
2023-04-27T04:02:16.597Z,2.00
2023-04-27T04:04:19.404Z,2.25
2023-04-27T04:06:22.304Z,2.00
2023-04-27T04:08:25.032Z,2.58
2023-04-27T04:10:28.044Z,2.17
2023-04-27T04:12:31.579Z,1.63
2023-04-27T04:14:34.365Z,2.25
2023-04-27T04:16:38.031Z,2.08
2023-04-27T04:18:40.796Z,1.95
2023-04-27T04:20:43.607Z,1.52
2023-04-27T04:22:46.392Z,1.90
2023-04-27T04:24:49.183Z,1.67
2023-04-27T04:26:52.165Z,1.75
2023-04-27T04:28:54.826Z,1.60
2023-04-27T04:30:57.533Z,1.60
2023-04-27T04:33:00.420Z,1.40
2023-04-27T04:35:05.034Z,1.88
2023-04-27T04:37:09.260Z,1.77
2023-04-27T04:39:12.884Z,1.98
2023-04-27T04:41:16.012Z,1.90
2023-04-27T04:43:19.039Z,1.65
2023-04-27T04:45:21.925Z,1.45
2023-04-27T04:47:24.705Z,1.80
2023-04-27T04:49:27.452Z,2.20
2023-04-27T04:51:30.746Z,1.35
2023-04-27T04:53:33.520Z,1.73
2023-04-27T04:55:36.230Z,1.90
2023-04-27T04:57:39.027Z,1.63
2023-04-27T04:59:42.501Z,1.88
2023-04-27T05:01:45.327Z,1.88
2023-04-27T05:03:48.351Z,1.67
2023-04-27T05:05:51.216Z,2.63
2023-04-27T05:07:54.012Z,2.50
2023-04-27T05:09:57.520Z,2.20
2023-04-27T05:12:02.060Z,3.58
2023-04-27T05:14:05.147Z,2.15
2023-04-27T05:16:08.649Z,2.30
2023-04-27T05:18:11.364Z,2.33
2023-04-27T05:20:14.273Z,2.42
2023-04-27T05:22:17.155Z,2.47
2023-04-27T05:24:20.248Z,3.30
2023-04-27T05:26:22.974Z,3.63
2023-04-27T05:28:25.706Z,3.05
2023-04-27T05:30:28.458Z,2.90
2023-04-27T05:32:31.675Z,3.50
2023-04-27T05:34:34.445Z,2.53
2023-04-27T05:36:37.497Z,2.33
2023-04-27T05:38:40.690Z,2.85
2023-04-27T05:40:43.400Z,2.33
2023-04-27T05:42:49.274Z,2.78
2023-04-27T05:44:52.157Z,2.90
2023-04-27T05:46:55.265Z,3.25
2023-04-27T05:48:58.088Z,2.65
2023-04-27T05:51:01.962Z,3.25
2023-04-27T05:53:05.797Z,3.10
2023-04-27T05:55:09.098Z,3.33
2023-04-27T05:57:11.812Z,2.78
2023-04-27T05:59:14.867Z,2.83
2023-04-27T06:01:19.444Z,2.90
2023-04-27T06:03:22.318Z,2.85
2023-04-27T06:05:25.189Z,3.22
2023-04-27T06:07:28.100Z,2.63
2023-04-27T06:09:31.269Z,2.88
2023-04-27T06:11:34.039Z,2.10
2023-04-27T06:13:36.705Z,2.63
2023-04-27T06:15:39.548Z,2.88
2023-04-27T06:17:44.223Z,2.90
2023-04-27T06:19:47.098Z,2.85
2023-04-27T06:21:51.154Z,2.80
2023-04-27T06:23:53.909Z,2.80
2023-04-27T06:25:56.966Z,2.65
2023-04-27T06:27:59.677Z,2.53
2023-04-27T06:30:02.518Z,3.03
2023-04-27T06:32:09.050Z,2.65
2023-04-27T06:34:11.768Z,2.83
2023-04-27T06:36:14.629Z,2.85
2023-04-27T06:38:17.330Z,3.30
2023-04-27T06:40:20.128Z,3.30
2023-04-27T06:42:23.004Z,2.75
2023-04-27T06:44:25.756Z,2.75
2023-04-27T06:46:28.965Z,2.80
2023-04-27T06:48:32.023Z,2.30
2023-04-27T06:50:35.077Z,3.13
2023-04-27T06:52:37.777Z,2.35
2023-04-27T06:54:41.044Z,2.10
2023-04-27T06:56:44.830Z,2.22
2023-04-27T06:58:49.048Z,2.25
2023-04-27T07:00:51.944Z,2.50
2023-04-27T07:02:54.788Z,2.78
2023-04-27T07:04:57.750Z,2.47
2023-04-27T07:07:00.458Z,2.47
2023-04-27T07:09:13.263Z,1.95
2023-04-27T07:11:23.786Z,2.22
2023-04-27T07:13:26.468Z,3.53
2023-04-27T07:15:30.759Z,1.80
2023-04-27T07:17:34.023Z,1.90
2023-04-27T07:19:37.708Z,2.70
2023-04-27T07:21:41.341Z,2.38
2023-04-27T07:23:44.154Z,2.25
2023-04-27T07:25:47.015Z,2.47
2023-04-27T07:27:49.783Z,2.25
2023-04-27T07:29:53.492Z,2.55
2023-04-27T07:31:56.389Z,2.08
2023-04-27T07:34:00.841Z,2.20
2023-04-27T07:36:03.954Z,1.58
2023-04-27T07:38:07.046Z,2.60
2023-04-27T07:40:16.817Z,2.10
2023-04-27T07:42:22.547Z,2.67
2023-04-27T07:44:25.581Z,2.80
2023-04-27T07:46:30.619Z,2.55
2023-04-27T07:48:34.124Z,2.20
2023-04-27T07:50:37.078Z,2.30
2023-04-27T07:52:40.160Z,1.75
2023-04-27T07:54:43.450Z,1.80
2023-04-27T07:56:46.464Z,1.70
2023-04-27T07:58:49.367Z,2.72
2023-04-27T08:00:52.197Z,2.05
2023-04-27T08:03:06.042Z,2.28
2023-04-27T08:05:09.670Z,1.70
2023-04-27T08:07:12.970Z,1.65
2023-04-27T08:09:16.093Z,1.85
2023-04-27T08:11:19.037Z,1.65
2023-04-27T08:13:23.181Z,1.73
2023-04-27T08:15:26.511Z,1.58
2023-04-27T08:17:29.490Z,1.27
2023-04-27T08:19:32.281Z,2.20
2023-04-27T08:21:35.185Z,1.00
2023-04-27T08:23:39.026Z,1.50
2023-04-27T08:25:41.790Z,1.63
2023-04-27T08:27:44.385Z,1.40
2023-04-27T08:29:48.127Z,1.05
2023-04-27T08:31:51.517Z,1.10
2023-04-27T08:33:54.662Z,1.50
2023-04-27T08:35:57.494Z,1.20
2023-04-27T08:38:00.463Z,1.25
2023-04-27T08:40:10.137Z,1.30
2023-04-27T08:42:14.572Z,1.52
2023-04-27T08:44:17.424Z,1.30
2023-04-27T08:46:24.596Z,1.50
2023-04-27T08:48:34.126Z,1.60
2023-04-27T08:50:44.941Z,1.20
2023-04-27T08:52:48.620Z,0.82
2023-04-27T08:54:51.429Z,1.38
2023-04-27T08:56:54.188Z,1.23
2023-04-27T08:58:59.123Z,1.33
2023-04-27T09:01:07.618Z,0.80
2023-04-27T09:03:24.077Z,1.33
2023-04-27T09:05:27.773Z,0.70
2023-04-27T09:07:31.233Z,0.90
2023-04-27T09:09:34.091Z,1.00
2023-04-27T09:11:39.048Z,0.90
2023-04-27T09:13:45.442Z,0.85
2023-04-27T09:15:52.508Z,1.00
2023-04-27T09:17:56.964Z,1.10
2023-04-27T09:20:15.381Z,0.82
2023-04-27T09:22:18.195Z,0.47
2023-04-27T09:24:20.997Z,0.85
2023-04-27T09:26:26.160Z,0.75
2023-04-27T09:28:34.428Z,0.70
2023-04-27T09:30:37.994Z,0.60
2023-04-27T09:32:40.752Z,0.77
2023-04-27T09:34:44.199Z,0.70
2023-04-27T09:36:48.947Z,1.15
2023-04-27T09:38:52.855Z,1.42
2023-04-27T09:40:56.815Z,0.73
2023-04-27T09:43:02.178Z,0.98
2023-04-27T09:45:07.354Z,0.85
2023-04-27T09:47:11.449Z,1.15
2023-04-27T09:49:15.029Z,1.40
2023-04-27T09:51:18.147Z,0.82
2023-04-27T09:53:33.496Z,0.93
2023-04-27T09:55:43.600Z,0.80
2023-04-27T09:58:18.532Z,0.80
2023-04-27T10:00:37.113Z,1.20
2023-04-27T10:02:55.699Z,0.85
2023-04-27T10:04:58.456Z,0.77
2023-04-27T10:07:07.783Z,1.10
2023-04-27T10:09:11.059Z,0.90
2023-04-27T10:11:19.548Z,0.93
2023-04-27T10:13:24.666Z,0.80
2023-04-27T10:15:28.616Z,0.98
2023-04-27T10:17:34.673Z,1.08
2023-04-27T10:19:37.828Z,1.20
2023-04-27T10:22:03.845Z,1.23
2023-04-27T10:24:09.965Z,0.60
2023-04-27T10:26:12.956Z,0.90
2023-04-27T10:28:18.154Z,1.10
2023-04-27T10:30:23.043Z,0.95
2023-04-27T10:32:26.848Z,1.13
2023-04-27T10:34:29.635Z,1.23
2023-04-27T10:36:41.193Z,0.93
2023-04-27T10:38:44.368Z,1.17
2023-04-27T10:40:56.942Z,1.23
2023-04-27T10:43:09.010Z,1.00
2023-04-27T10:45:15.753Z,1.00
2023-04-27T10:47:23.860Z,0.90
2023-04-27T10:49:30.509Z,1.02
2023-04-27T10:51:33.880Z,0.70
2023-04-27T10:53:39.587Z,0.85
2023-04-27T10:55:42.455Z,0.63
2023-04-27T10:57:49.301Z,1.00
2023-04-27T10:59:54.036Z,0.90
2023-04-27T11:01:57.151Z,1.00
2023-04-27T11:04:01.482Z,0.90
2023-04-27T11:06:05.908Z,0.60
2023-04-27T11:08:10.746Z,0.63
2023-04-27T11:10:20.949Z,1.17
2023-04-27T11:12:24.340Z,0.68
2023-04-27T11:14:27.506Z,0.85
2023-04-27T11:16:33.094Z,0.68
2023-04-27T11:18:38.429Z,1.17
2023-04-27T11:20:41.529Z,0.77
2023-04-27T11:22:46.396Z,0.80
2023-04-27T11:24:50.548Z,0.70
2023-04-27T11:26:54.005Z,0.55
2023-04-27T11:29:12.680Z,0.70
2023-04-27T11:31:16.800Z,0.70
2023-04-27T11:33:19.724Z,0.77
2023-04-27T11:35:34.745Z,1.02
2023-04-27T11:37:38.684Z,0.90
2023-04-27T11:39:41.803Z,0.90
2023-04-27T11:41:46.596Z,0.98
2023-04-27T11:43:52.403Z,0.80
2023-04-27T11:45:56.410Z,0.77
2023-04-27T11:47:59.857Z,0.77
2023-04-27T11:50:05.875Z,1.40
2023-04-27T11:52:11.816Z,1.17
2023-04-27T11:54:14.762Z,1.73
2023-04-27T11:56:18.269Z,2.17
2023-04-27T11:58:21.642Z,2.10
2023-04-27T12:00:25.026Z,1.63
2023-04-27T12:02:29.497Z,1.88
2023-04-27T12:04:33.017Z,1.95
2023-04-27T12:06:35.966Z,1.50
2023-04-27T12:08:39.092Z,1.20
2023-04-27T12:10:42.095Z,0.82
2023-04-27T12:12:44.920Z,1.00
2023-04-27T12:14:48.177Z,1.00
2023-04-27T12:16:51.526Z,1.70
2023-04-27T12:18:54.470Z,0.98
2023-04-27T12:21:01.514Z,0.60
2023-04-27T12:23:05.634Z,0.73
2023-04-27T12:25:08.632Z,1.30
2023-04-27T12:27:12.542Z,1.13
2023-04-27T12:29:16.174Z,1.23
2023-04-27T12:31:24.705Z,1.23
2023-04-27T12:33:28.941Z,1.58
2023-04-27T12:35:32.227Z,1.27
2023-04-27T12:37:35.781Z,1.20
2023-04-27T12:39:38.888Z,1.30
2023-04-27T12:41:45.922Z,1.10
2023-04-27T12:43:49.235Z,1.13
2023-04-27T12:45:52.039Z,0.95
2023-04-27T12:48:03.501Z,0.98
2023-04-27T12:50:07.978Z,1.10
2023-04-27T12:52:10.898Z,1.10
2023-04-27T12:54:14.277Z,1.17
2023-04-27T12:56:17.209Z,1.23
2023-04-27T12:58:19.971Z,1.27
2023-04-27T13:00:22.779Z,1.35
2023-04-27T13:02:27.271Z,1.10
2023-04-27T13:04:31.887Z,1.02
2023-04-27T13:06:35.609Z,1.88
2023-04-27T13:08:38.467Z,1.77
2023-04-27T13:10:42.668Z,1.20
2023-04-27T13:12:46.129Z,2.10
2023-04-27T13:14:48.812Z,1.60
2023-04-27T13:16:51.756Z,1.58
2023-04-27T13:18:55.679Z,1.35
2023-04-27T13:20:58.804Z,1.25
2023-04-27T13:23:01.898Z,1.33
2023-04-27T13:25:06.165Z,1.23
2023-04-27T13:27:08.968Z,1.10
2023-04-27T13:29:11.647Z,1.42
2023-04-27T13:31:14.438Z,1.30
2023-04-27T13:33:23.404Z,1.30
2023-04-27T13:35:26.707Z,1.30
2023-04-27T13:37:29.965Z,1.10
2023-04-27T13:39:33.190Z,0.85
2023-04-27T13:41:36.359Z,1.27
2023-04-27T13:43:39.081Z,1.10
2023-04-27T13:45:42.784Z,1.00
2023-04-27T13:47:45.737Z,1.52
2023-04-27T13:49:48.500Z,1.35
2023-04-27T13:51:51.265Z,0.90
2023-04-27T13:53:53.976Z,1.42
2023-04-27T13:55:59.462Z,1.50
2023-04-27T13:58:02.964Z,1.88
2023-04-27T14:00:12.710Z,1.85
2023-04-27T14:02:16.244Z,1.45
2023-04-27T14:04:19.074Z,1.58
2023-04-27T14:06:21.860Z,1.40
2023-04-27T14:08:25.743Z,1.40
2023-04-27T14:10:29.160Z,1.40
2023-04-27T14:12:33.097Z,1.67
2023-04-27T14:14:37.322Z,1.52
2023-04-27T14:16:40.901Z,1.52
2023-04-27T14:18:44.199Z,1.60
2023-04-27T14:20:47.084Z,1.63
2023-04-27T14:22:49.904Z,1.42
2023-04-27T14:24:52.671Z,1.45
2023-04-27T14:26:55.626Z,0.90
2023-04-27T14:28:59.078Z,0.98
2023-04-27T14:31:01.908Z,1.10
2023-04-27T14:33:04.805Z,0.80
2023-04-27T14:35:20.926Z,1.02
2023-04-27T14:37:23.699Z,1.02
2023-04-27T14:39:28.235Z,1.17
2023-04-27T14:41:30.938Z,1.08
2023-04-27T14:43:33.824Z,1.02
2023-04-27T14:45:50.368Z,1.00
2023-04-27T14:47:55.477Z,1.10
2023-04-27T14:49:58.268Z,1.05
2023-04-27T14:52:04.233Z,1.30
2023-04-27T14:54:08.238Z,1.10
2023-04-27T14:56:11.893Z,0.98
2023-04-27T14:58:15.679Z,1.13
2023-04-27T15:00:18.806Z,1.40
2023-04-27T15:02:21.822Z,1.60
2023-04-27T15:04:24.686Z,1.10
2023-04-27T15:06:28.877Z,1.30
2023-04-27T15:08:33.553Z,0.90
2023-04-27T15:10:37.833Z,1.13
2023-04-27T15:12:40.969Z,1.00
2023-04-27T15:14:43.832Z,1.52
2023-04-27T15:16:46.522Z,1.40
2023-04-27T15:18:49.245Z,1.42
2023-04-27T15:20:56.097Z,2.30
2023-04-27T15:22:58.830Z,2.05
2023-04-27T15:25:01.504Z,1.52
2023-04-27T15:27:04.378Z,2.90
2023-04-27T15:29:07.461Z,2.13
2023-04-27T15:31:10.229Z,1.15
2023-04-27T15:33:14.103Z,1.70
2023-04-27T15:35:16.961Z,1.50
2023-04-27T15:37:19.695Z,1.63
2023-04-27T15:39:22.537Z,1.30
2023-04-27T15:41:25.458Z,1.10
2023-04-27T15:43:28.340Z,1.60
2023-04-27T15:45:33.977Z,1.45
2023-04-27T15:47:36.741Z,1.33
2023-04-27T15:49:53.446Z,1.40
2023-04-27T15:51:59.330Z,1.30
2023-04-27T15:54:02.279Z,1.30
2023-04-27T15:56:05.339Z,1.52
2023-04-27T15:58:08.107Z,1.52
2023-04-27T16:00:12.102Z,1.65
2023-04-27T16:02:15.922Z,1.73
2023-04-27T16:04:19.069Z,1.65
2023-04-27T16:06:21.744Z,1.88
2023-04-27T16:08:26.996Z,1.63
2023-04-27T16:10:29.760Z,1.60
2023-04-27T16:12:32.686Z,1.27
2023-04-27T16:14:35.859Z,1.45
2023-04-27T16:16:39.009Z,1.52
2023-04-27T16:18:41.860Z,1.52
2023-04-27T16:20:44.533Z,1.60
2023-04-27T16:22:47.254Z,1.45
2023-04-27T16:24:50.021Z,1.35
2023-04-27T16:26:52.714Z,1.33
2023-04-27T16:28:56.760Z,1.25
2023-04-27T16:30:59.492Z,1.60
2023-04-27T16:33:02.296Z,1.85
2023-04-27T16:35:05.440Z,1.65
2023-04-27T16:37:08.906Z,1.65
2023-04-27T16:39:11.962Z,1.50
2023-04-27T16:41:14.809Z,1.50
2023-04-27T16:43:17.543Z,1.55
2023-04-27T16:45:20.992Z,1.40
2023-04-27T16:47:24.193Z,2.10
2023-04-27T16:49:35.096Z,1.70
2023-04-27T16:51:38.073Z,2.53
2023-04-27T16:53:41.521Z,2.45
2023-04-27T16:55:44.302Z,1.73
2023-04-27T16:57:48.032Z,1.55
2023-04-27T16:59:50.844Z,2.00
2023-04-27T17:01:53.501Z,2.33
2023-04-27T17:03:57.979Z,2.40
2023-04-27T17:06:00.772Z,1.90
2023-04-27T17:08:05.040Z,2.22
2023-04-27T17:10:09.552Z,1.95
2023-04-27T17:12:14.976Z,2.50
2023-04-27T17:14:19.754Z,2.00
2023-04-27T17:16:23.569Z,1.95
2023-04-27T17:18:26.658Z,2.28
2023-04-27T17:20:29.362Z,2.13
2023-04-27T17:22:33.110Z,2.05
2023-04-27T17:24:35.921Z,2.28
2023-04-27T17:26:39.243Z,2.00
2023-04-27T17:28:41.899Z,2.20
2023-04-27T17:30:44.714Z,1.98
2023-04-27T17:32:47.493Z,2.30
2023-04-27T17:34:50.580Z,2.38
2023-04-27T17:36:53.365Z,2.28
2023-04-27T17:38:56.299Z,2.20
2023-04-27T17:40:59.178Z,2.28
2023-04-27T17:43:01.956Z,2.45
2023-04-27T17:45:04.965Z,2.20
2023-04-27T17:47:08.589Z,2.72
2023-04-27T17:49:11.554Z,2.42
2023-04-27T17:51:15.339Z,3.03
2023-04-27T17:53:18.268Z,2.55
2023-04-27T17:55:21.816Z,3.42
2023-04-27T17:57:24.650Z,2.15
2023-04-27T17:59:27.832Z,1.98
2023-04-27T18:01:31.260Z,2.17
2023-04-27T18:03:34.163Z,2.40
2023-04-27T18:05:37.256Z,2.45
2023-04-27T18:07:39.972Z,2.05
2023-04-27T18:09:42.683Z,2.20
2023-04-27T18:11:45.596Z,2.47
2023-04-27T18:13:48.409Z,2.40
2023-04-27T18:15:51.550Z,2.22
2023-04-27T18:17:55.101Z,2.63
2023-04-27T18:20:08.110Z,2.10
2023-04-27T18:22:12.508Z,2.55
2023-04-27T18:24:15.216Z,2.15
2023-04-27T18:26:18.036Z,2.58
2023-04-27T18:28:20.848Z,2.85
2023-04-27T18:30:23.774Z,2.03
2023-04-27T18:32:26.905Z,2.85
2023-04-27T18:34:29.626Z,2.35
2023-04-27T18:36:32.613Z,2.38
2023-04-27T18:38:36.405Z,2.80
2023-04-27T18:40:39.293Z,2.75
2023-04-27T18:42:42.263Z,3.65
2023-04-27T18:44:45.382Z,3.20
2023-04-27T18:46:48.183Z,2.97
2023-04-27T18:48:50.903Z,3.75
2023-04-27T18:50:53.667Z,3.40
2023-04-27T18:52:56.660Z,3.42
2023-04-27T18:54:59.549Z,3.55
2023-04-27T18:57:04.499Z,4.50
2023-04-27T18:59:07.243Z,4.05
2023-04-27T19:01:11.031Z,3.08
2023-04-27T19:03:14.426Z,4.07
2023-04-27T19:05:17.395Z,4.03
2023-04-27T19:07:20.199Z,3.28
2023-04-27T19:09:22.971Z,3.45
2023-04-27T19:11:26.157Z,4.10
2023-04-27T19:13:29.116Z,3.50
2023-04-27T19:15:32.077Z,3.03
2023-04-27T19:17:35.306Z,4.30
2023-04-27T19:19:38.326Z,4.13
2023-04-27T19:21:42.181Z,4.00
2023-04-27T19:23:45.687Z,4.22
2023-04-27T19:25:48.503Z,4.28
2023-04-27T19:27:51.748Z,3.90
2023-04-27T19:29:57.465Z,3.53
2023-04-27T19:32:02.363Z,3.65
2023-04-27T19:34:05.120Z,3.45
2023-04-27T19:36:08.169Z,3.28
2023-04-27T19:38:11.406Z,3.95
2023-04-27T19:40:15.097Z,3.83
2023-04-27T19:42:17.890Z,4.35
2023-04-27T19:44:20.682Z,4.32
2023-04-27T19:46:23.410Z,4.25
2023-04-27T19:48:26.563Z,4.68
2023-04-27T19:50:29.334Z,5.35
2023-04-27T19:52:32.115Z,4.13
2023-04-27T19:54:38.454Z,3.90
2023-04-27T19:56:41.486Z,4.53
2023-04-27T19:58:44.240Z,3.80
2023-04-27T20:00:47.305Z,4.32
2023-04-27T20:02:53.813Z,3.33
2023-04-27T20:04:57.877Z,3.00
2023-04-27T20:07:02.837Z,2.60
2023-04-27T20:09:07.171Z,2.33
2023-04-27T20:11:09.945Z,3.20
2023-04-27T20:13:12.799Z,2.13
2023-04-27T20:15:15.782Z,2.78
2023-04-27T20:17:18.595Z,2.60
2023-04-27T20:19:22.684Z,2.70
2023-04-27T20:21:25.468Z,2.50
2023-04-27T20:23:28.276Z,2.90
2023-04-27T20:25:31.235Z,2.53
2023-04-27T20:27:35.720Z,2.72
2023-04-27T20:29:38.585Z,2.55
2023-04-27T20:31:41.568Z,1.80
2023-04-27T20:33:44.314Z,2.13
2023-04-27T20:35:47.474Z,2.35
2023-04-27T20:37:50.328Z,2.28
2023-04-27T20:39:54.146Z,2.40
2023-04-27T20:41:57.164Z,2.25
2023-04-27T20:44:00.696Z,2.60
2023-04-27T20:46:04.149Z,2.22
2023-04-27T20:48:09.432Z,2.35
2023-04-27T20:50:12.258Z,1.92
2023-04-27T20:52:15.251Z,1.90
2023-04-27T20:54:17.960Z,2.35
2023-04-27T20:56:20.845Z,2.10
2023-04-27T20:58:24.004Z,2.58
2023-04-27T21:00:27.020Z,2.42
2023-04-27T21:02:29.986Z,2.58
2023-04-27T21:04:32.901Z,2.13
2023-04-27T21:06:35.865Z,1.90
2023-04-27T21:08:38.790Z,2.22
2023-04-27T21:10:41.751Z,2.03
2023-04-27T21:12:44.593Z,2.50
2023-04-27T21:14:47.284Z,2.45
2023-04-27T21:16:50.115Z,2.22
2023-04-27T21:18:52.869Z,2.28
2023-04-27T21:20:55.741Z,2.53
2023-04-27T21:22:58.468Z,2.75
2023-04-27T21:25:01.375Z,2.53
2023-04-27T21:27:07.250Z,2.42
2023-04-27T21:29:09.942Z,2.42
2023-04-27T21:31:12.749Z,2.70
2023-04-27T21:33:15.716Z,3.05
2023-04-27T21:35:18.647Z,2.80
2023-04-27T21:37:21.422Z,2.90
2023-04-27T21:39:24.086Z,2.20
2023-04-27T21:41:26.966Z,3.65
2023-04-27T21:43:29.714Z,3.25
2023-04-27T21:45:32.614Z,2.67
2023-04-27T21:47:35.323Z,2.67
2023-04-27T21:49:38.045Z,2.40
2023-04-27T21:51:41.032Z,2.25
2023-04-27T21:53:43.830Z,2.63
2023-04-27T21:55:46.740Z,2.60
2023-04-27T21:57:49.484Z,2.53
2023-04-27T21:59:52.153Z,3.13
2023-04-27T22:01:56.507Z,2.70
2023-04-27T22:03:59.708Z,2.70
2023-04-27T22:06:02.654Z,3.05
2023-04-27T22:08:05.690Z,3.10
2023-04-27T22:10:08.895Z,3.65
2023-04-27T22:12:11.947Z,2.65
2023-04-27T22:14:15.013Z,3.25
2023-04-27T22:16:18.020Z,2.78
2023-04-27T22:18:20.846Z,3.15
2023-04-27T22:20:23.733Z,3.38
2023-04-27T22:22:26.483Z,3.00
2023-04-27T22:24:29.256Z,2.97
2023-04-27T22:26:32.102Z,2.85
2023-04-27T22:28:34.849Z,3.15
2023-04-27T22:30:38.069Z,3.10
2023-04-27T22:32:41.372Z,2.63
2023-04-27T22:34:44.281Z,3.35
2023-04-27T22:36:47.040Z,2.78
2023-04-27T22:38:50.992Z,3.05
2023-04-27T22:40:53.765Z,2.80
2023-04-27T22:42:56.723Z,3.20
2023-04-27T22:44:59.556Z,3.85
2023-04-27T22:47:02.959Z,3.15
2023-04-27T22:49:05.823Z,3.13
2023-04-27T22:51:10.197Z,3.17
2023-04-27T22:53:12.961Z,2.83
2023-04-27T22:55:16.382Z,3.28
2023-04-27T22:57:19.412Z,3.72
2023-04-27T22:59:23.383Z,3.20
2023-04-27T23:01:26.338Z,2.90
2023-04-27T23:03:29.359Z,3.08
2023-04-27T23:05:32.997Z,3.22
2023-04-27T23:07:36.340Z,2.70
2023-04-27T23:09:39.288Z,2.47
2023-04-27T23:11:42.037Z,2.97
2023-04-27T23:13:48.358Z,2.47
2023-04-27T23:15:51.108Z,2.67
2023-04-27T23:17:54.148Z,2.88
2023-04-27T23:20:01.418Z,2.83
2023-04-27T23:22:07.035Z,3.25
2023-04-27T23:24:09.999Z,2.83
2023-04-27T23:26:16.478Z,2.53
2023-04-27T23:28:19.205Z,2.75
2023-04-27T23:30:22.679Z,2.60
2023-04-27T23:32:25.645Z,2.67
2023-04-27T23:34:28.446Z,2.78
2023-04-27T23:36:31.217Z,3.00
2023-04-27T23:38:33.992Z,3.20
2023-04-27T23:40:37.405Z,3.17
2023-04-27T23:42:40.188Z,3.05
2023-04-27T23:44:43.606Z,3.17
2023-04-27T23:46:46.406Z,3.38
2023-04-27T23:48:49.086Z,3.03
2023-04-27T23:51:02.441Z,2.90
2023-04-27T23:53:05.403Z,2.88
2023-04-27T23:55:08.657Z,3.50
2023-04-27T23:57:11.567Z,3.80
2023-04-27T23:59:15.195Z,3.17
